sensor_id;sensor_type;location;lat;lon;timestamp;P1;durP1;ratioP1;P2;durP2;ratioP2
54947;SDS011;41113;41.882;12.530;2023-12-14T00:01:49;10.80;;;2.20;;
54947;SDS011;41113;41.882;12.530;2023-12-14T00:04:15;12.48;;;1.90;;
54947;SDS011;41113;41.882;12.530;2023-12-14T00:06:40;11.75;;;1.75;;
54947;SDS011;41113;41.882;12.530;2023-12-14T00:09:05;11.15;;;2.33;;
54947;SDS011;41113;41.882;12.530;2023-12-14T00:11:35;10.70;;;1.75;;
54947;SDS011;41113;41.882;12.530;2023-12-14T00:14:02;10.07;;;2.17;;
54947;SDS011;41113;41.882;12.530;2023-12-14T00:16:28;13.95;;;2.75;;
54947;SDS011;41113;41.882;12.530;2023-12-14T00:18:53;11.07;;;2.65;;
54947;SDS011;41113;41.882;12.530;2023-12-14T00:21:18;13.15;;;2.38;;
54947;SDS011;41113;41.882;12.530;2023-12-14T00:23:44;10.07;;;1.90;;
54947;SDS011;41113;41.882;12.530;2023-12-14T00:26:10;12.13;;;2.33;;
54947;SDS011;41113;41.882;12.530;2023-12-14T00:28:36;9.45;;;1.95;;
54947;SDS011;41113;41.882;12.530;2023-12-14T00:31:01;9.82;;;2.30;;
54947;SDS011;41113;41.882;12.530;2023-12-14T00:33:26;17.15;;;2.25;;
54947;SDS011;41113;41.882;12.530;2023-12-14T00:35:52;11.52;;;2.13;;
54947;SDS011;41113;41.882;12.530;2023-12-14T00:38:17;10.20;;;2.08;;
54947;SDS011;41113;41.882;12.530;2023-12-14T00:40:42;9.50;;;1.88;;
54947;SDS011;41113;41.882;12.530;2023-12-14T00:43:08;9.90;;;2.00;;
54947;SDS011;41113;41.882;12.530;2023-12-14T00:45:33;10.15;;;2.20;;
54947;SDS011;41113;41.882;12.530;2023-12-14T00:47:58;11.35;;;2.00;;
54947;SDS011;41113;41.882;12.530;2023-12-14T00:50:24;10.57;;;2.20;;
54947;SDS011;41113;41.882;12.530;2023-12-14T00:52:49;11.85;;;1.90;;
54947;SDS011;41113;41.882;12.530;2023-12-14T00:55:16;10.05;;;1.90;;
54947;SDS011;41113;41.882;12.530;2023-12-14T00:57:41;11.23;;;2.00;;
54947;SDS011;41113;41.882;12.530;2023-12-14T01:00:07;14.18;;;2.90;;
54947;SDS011;41113;41.882;12.530;2023-12-14T01:02:34;9.45;;;1.70;;
54947;SDS011;41113;41.882;12.530;2023-12-14T01:04:59;11.63;;;1.98;;
54947;SDS011;41113;41.882;12.530;2023-12-14T01:07:25;12.30;;;2.17;;
54947;SDS011;41113;41.882;12.530;2023-12-14T01:09:51;11.40;;;2.30;;
54947;SDS011;41113;41.882;12.530;2023-12-14T01:12:16;12.07;;;2.08;;
54947;SDS011;41113;41.882;12.530;2023-12-14T01:14:41;14.60;;;2.22;;
54947;SDS011;41113;41.882;12.530;2023-12-14T01:17:07;10.73;;;2.17;;
54947;SDS011;41113;41.882;12.530;2023-12-14T01:19:32;12.88;;;2.17;;
54947;SDS011;41113;41.882;12.530;2023-12-14T01:21:57;14.32;;;2.33;;
54947;SDS011;41113;41.882;12.530;2023-12-14T01:24:23;9.95;;;2.03;;
54947;SDS011;41113;41.882;12.530;2023-12-14T01:26:48;11.15;;;2.03;;
54947;SDS011;41113;41.882;12.530;2023-12-14T01:29:14;10.43;;;2.03;;
54947;SDS011;41113;41.882;12.530;2023-12-14T01:31:39;11.27;;;1.80;;
54947;SDS011;41113;41.882;12.530;2023-12-14T01:34:05;7.57;;;1.70;;
54947;SDS011;41113;41.882;12.530;2023-12-14T01:36:30;12.48;;;2.22;;
54947;SDS011;41113;41.882;12.530;2023-12-14T01:38:55;10.10;;;1.83;;
54947;SDS011;41113;41.882;12.530;2023-12-14T01:41:21;12.27;;;2.20;;
54947;SDS011;41113;41.882;12.530;2023-12-14T01:43:46;11.48;;;2.05;;
54947;SDS011;41113;41.882;12.530;2023-12-14T01:46:11;10.65;;;2.00;;
54947;SDS011;41113;41.882;12.530;2023-12-14T01:48:38;12.75;;;2.22;;
54947;SDS011;41113;41.882;12.530;2023-12-14T01:51:03;14.52;;;2.58;;
54947;SDS011;41113;41.882;12.530;2023-12-14T01:53:29;12.73;;;2.88;;
54947;SDS011;41113;41.882;12.530;2023-12-14T01:55:54;9.13;;;2.22;;
54947;SDS011;41113;41.882;12.530;2023-12-14T01:58:20;11.18;;;2.38;;
54947;SDS011;41113;41.882;12.530;2023-12-14T02:00:49;12.15;;;1.92;;
54947;SDS011;41113;41.882;12.530;2023-12-14T02:03:21;12.68;;;2.50;;
54947;SDS011;41113;41.882;12.530;2023-12-14T02:05:46;14.85;;;3.10;;
54947;SDS011;41113;41.882;12.530;2023-12-14T02:08:11;7.82;;;1.77;;
54947;SDS011;41113;41.882;12.530;2023-12-14T02:10:37;10.45;;;1.90;;
54947;SDS011;41113;41.882;12.530;2023-12-14T02:13:02;12.07;;;1.85;;
54947;SDS011;41113;41.882;12.530;2023-12-14T02:15:28;9.65;;;1.83;;
54947;SDS011;41113;41.882;12.530;2023-12-14T02:17:54;8.05;;;1.63;;
54947;SDS011;41113;41.882;12.530;2023-12-14T02:20:19;11.73;;;2.25;;
54947;SDS011;41113;41.882;12.530;2023-12-14T02:22:51;12.05;;;1.98;;
54947;SDS011;41113;41.882;12.530;2023-12-14T02:25:20;14.85;;;2.63;;
54947;SDS011;41113;41.882;12.530;2023-12-14T02:27:46;11.32;;;2.40;;
54947;SDS011;41113;41.882;12.530;2023-12-14T02:30:12;11.27;;;1.88;;
54947;SDS011;41113;41.882;12.530;2023-12-14T02:32:38;14.52;;;2.45;;
54947;SDS011;41113;41.882;12.530;2023-12-14T02:35:05;11.68;;;2.95;;
54947;SDS011;41113;41.882;12.530;2023-12-14T02:37:31;13.15;;;2.55;;
54947;SDS011;41113;41.882;12.530;2023-12-14T02:39:59;11.32;;;1.98;;
54947;SDS011;41113;41.882;12.530;2023-12-14T02:42:25;10.55;;;2.13;;
54947;SDS011;41113;41.882;12.530;2023-12-14T02:44:51;7.65;;;1.70;;
54947;SDS011;41113;41.882;12.530;2023-12-14T02:47:18;12.38;;;2.30;;
54947;SDS011;41113;41.882;12.530;2023-12-14T02:49:44;11.90;;;2.03;;
54947;SDS011;41113;41.882;12.530;2023-12-14T02:52:09;11.30;;;2.40;;
54947;SDS011;41113;41.882;12.530;2023-12-14T02:54:34;10.43;;;2.20;;
54947;SDS011;41113;41.882;12.530;2023-12-14T02:57:01;12.63;;;2.03;;
54947;SDS011;41113;41.882;12.530;2023-12-14T02:59:27;9.35;;;2.42;;
54947;SDS011;41113;41.882;12.530;2023-12-14T03:01:53;15.25;;;2.63;;
54947;SDS011;41113;41.882;12.530;2023-12-14T03:04:18;15.50;;;2.60;;
54947;SDS011;41113;41.882;12.530;2023-12-14T03:06:43;9.60;;;2.00;;
54947;SDS011;41113;41.882;12.530;2023-12-14T03:09:09;12.85;;;2.17;;
54947;SDS011;41113;41.882;12.530;2023-12-14T03:11:34;14.60;;;2.28;;
54947;SDS011;41113;41.882;12.530;2023-12-14T03:13:59;10.35;;;1.70;;
54947;SDS011;41113;41.882;12.530;2023-12-14T03:16:25;9.02;;;2.28;;
54947;SDS011;41113;41.882;12.530;2023-12-14T03:18:50;14.20;;;2.22;;
54947;SDS011;41113;41.882;12.530;2023-12-14T03:21:19;10.93;;;2.67;;
54947;SDS011;41113;41.882;12.530;2023-12-14T03:23:44;10.63;;;2.28;;
54947;SDS011;41113;41.882;12.530;2023-12-14T03:26:10;8.98;;;1.90;;
54947;SDS011;41113;41.882;12.530;2023-12-14T03:28:35;13.18;;;2.72;;
54947;SDS011;41113;41.882;12.530;2023-12-14T03:31:01;12.45;;;2.33;;
54947;SDS011;41113;41.882;12.530;2023-12-14T03:33:26;10.40;;;2.15;;
54947;SDS011;41113;41.882;12.530;2023-12-14T03:35:51;9.05;;;2.05;;
54947;SDS011;41113;41.882;12.530;2023-12-14T03:38:17;8.80;;;1.80;;
54947;SDS011;41113;41.882;12.530;2023-12-14T03:40:42;15.27;;;2.38;;
54947;SDS011;41113;41.882;12.530;2023-12-14T03:43:08;6.65;;;1.50;;
54947;SDS011;41113;41.882;12.530;2023-12-14T03:45:34;10.38;;;1.73;;
54947;SDS011;41113;41.882;12.530;2023-12-14T03:48:00;11.45;;;2.00;;
54947;SDS011;41113;41.882;12.530;2023-12-14T03:50:25;10.98;;;2.17;;
54947;SDS011;41113;41.882;12.530;2023-12-14T03:52:50;9.57;;;1.55;;
54947;SDS011;41113;41.882;12.530;2023-12-14T03:55:15;12.93;;;1.83;;
54947;SDS011;41113;41.882;12.530;2023-12-14T03:57:41;9.23;;;1.55;;
54947;SDS011;41113;41.882;12.530;2023-12-14T04:00:09;11.90;;;1.90;;
54947;SDS011;41113;41.882;12.530;2023-12-14T04:02:35;10.27;;;1.73;;
54947;SDS011;41113;41.882;12.530;2023-12-14T04:05:00;9.70;;;1.58;;
54947;SDS011;41113;41.882;12.530;2023-12-14T04:07:27;9.93;;;1.90;;
54947;SDS011;41113;41.882;12.530;2023-12-14T04:09:53;12.48;;;2.10;;
54947;SDS011;41113;41.882;12.530;2023-12-14T04:12:18;10.55;;;1.95;;
54947;SDS011;41113;41.882;12.530;2023-12-14T04:14:43;8.40;;;1.63;;
54947;SDS011;41113;41.882;12.530;2023-12-14T04:17:09;9.40;;;2.00;;
54947;SDS011;41113;41.882;12.530;2023-12-14T04:19:35;10.52;;;1.80;;
54947;SDS011;41113;41.882;12.530;2023-12-14T04:22:03;9.35;;;2.03;;
54947;SDS011;41113;41.882;12.530;2023-12-14T04:24:29;10.50;;;1.80;;
54947;SDS011;41113;41.882;12.530;2023-12-14T04:26:55;13.52;;;2.38;;
54947;SDS011;41113;41.882;12.530;2023-12-14T04:29:23;11.20;;;2.20;;
54947;SDS011;41113;41.882;12.530;2023-12-14T04:31:48;10.27;;;1.95;;
54947;SDS011;41113;41.882;12.530;2023-12-14T04:34:15;10.45;;;1.90;;
54947;SDS011;41113;41.882;12.530;2023-12-14T04:36:49;13.75;;;2.13;;
54947;SDS011;41113;41.882;12.530;2023-12-14T04:39:14;10.30;;;2.25;;
54947;SDS011;41113;41.882;12.530;2023-12-14T04:41:41;11.02;;;1.92;;
54947;SDS011;41113;41.882;12.530;2023-12-14T04:44:07;9.52;;;2.00;;
54947;SDS011;41113;41.882;12.530;2023-12-14T04:46:32;10.27;;;1.98;;
54947;SDS011;41113;41.882;12.530;2023-12-14T04:48:58;11.45;;;1.80;;
54947;SDS011;41113;41.882;12.530;2023-12-14T04:51:23;9.07;;;1.70;;
54947;SDS011;41113;41.882;12.530;2023-12-14T04:53:49;13.77;;;2.72;;
54947;SDS011;41113;41.882;12.530;2023-12-14T04:56:14;11.75;;;2.17;;
54947;SDS011;41113;41.882;12.530;2023-12-14T04:58:40;10.20;;;2.10;;
54947;SDS011;41113;41.882;12.530;2023-12-14T05:01:07;12.15;;;2.28;;
54947;SDS011;41113;41.882;12.530;2023-12-14T05:03:33;12.25;;;2.30;;
54947;SDS011;41113;41.882;12.530;2023-12-14T05:05:59;12.68;;;2.33;;
54947;SDS011;41113;41.882;12.530;2023-12-14T05:08:25;10.43;;;2.13;;
54947;SDS011;41113;41.882;12.530;2023-12-14T05:10:50;11.73;;;2.40;;
54947;SDS011;41113;41.882;12.530;2023-12-14T05:13:15;9.35;;;1.70;;
54947;SDS011;41113;41.882;12.530;2023-12-14T05:15:41;8.45;;;1.70;;
54947;SDS011;41113;41.882;12.530;2023-12-14T05:18:06;9.32;;;1.80;;
54947;SDS011;41113;41.882;12.530;2023-12-14T05:20:32;10.27;;;2.03;;
54947;SDS011;41113;41.882;12.530;2023-12-14T05:22:58;12.43;;;2.10;;
54947;SDS011;41113;41.882;12.530;2023-12-14T05:25:24;10.32;;;2.05;;
54947;SDS011;41113;41.882;12.530;2023-12-14T05:27:50;10.90;;;2.10;;
54947;SDS011;41113;41.882;12.530;2023-12-14T05:30:15;12.75;;;2.33;;
54947;SDS011;41113;41.882;12.530;2023-12-14T05:32:41;11.15;;;1.95;;
54947;SDS011;41113;41.882;12.530;2023-12-14T05:35:06;11.27;;;2.00;;
54947;SDS011;41113;41.882;12.530;2023-12-14T05:37:32;12.68;;;2.20;;
54947;SDS011;41113;41.882;12.530;2023-12-14T05:39:57;9.30;;;2.03;;
54947;SDS011;41113;41.882;12.530;2023-12-14T05:42:23;12.50;;;2.30;;
54947;SDS011;41113;41.882;12.530;2023-12-14T05:44:48;12.63;;;2.50;;
54947;SDS011;41113;41.882;12.530;2023-12-14T05:47:14;10.85;;;2.42;;
54947;SDS011;41113;41.882;12.530;2023-12-14T05:49:42;13.52;;;2.60;;
54947;SDS011;41113;41.882;12.530;2023-12-14T05:52:08;8.40;;;2.10;;
54947;SDS011;41113;41.882;12.530;2023-12-14T05:54:36;11.95;;;2.38;;
54947;SDS011;41113;41.882;12.530;2023-12-14T05:57:02;13.45;;;2.22;;
54947;SDS011;41113;41.882;12.530;2023-12-14T05:59:28;11.55;;;1.98;;
54947;SDS011;41113;41.882;12.530;2023-12-14T06:01:59;16.95;;;2.67;;
54947;SDS011;41113;41.882;12.530;2023-12-14T06:04:26;10.40;;;2.60;;
54947;SDS011;41113;41.882;12.530;2023-12-14T06:06:52;12.10;;;2.42;;
54947;SDS011;41113;41.882;12.530;2023-12-14T06:09:18;12.82;;;2.60;;
54947;SDS011;41113;41.882;12.530;2023-12-14T06:11:46;14.15;;;2.47;;
54947;SDS011;41113;41.882;12.530;2023-12-14T06:14:12;13.77;;;2.47;;
54947;SDS011;41113;41.882;12.530;2023-12-14T06:16:37;7.28;;;1.83;;
54947;SDS011;41113;41.882;12.530;2023-12-14T06:19:03;11.55;;;2.25;;
54947;SDS011;41113;41.882;12.530;2023-12-14T06:21:28;10.75;;;2.70;;
54947;SDS011;41113;41.882;12.530;2023-12-14T06:23:54;11.93;;;2.08;;
54947;SDS011;41113;41.882;12.530;2023-12-14T06:26:20;10.85;;;2.28;;
54947;SDS011;41113;41.882;12.530;2023-12-14T06:28:45;13.18;;;2.72;;
54947;SDS011;41113;41.882;12.530;2023-12-14T06:31:14;19.98;;;3.85;;
54947;SDS011;41113;41.882;12.530;2023-12-14T06:33:40;17.20;;;3.55;;
54947;SDS011;41113;41.882;12.530;2023-12-14T06:36:07;16.20;;;3.58;;
54947;SDS011;41113;41.882;12.530;2023-12-14T06:38:34;16.45;;;3.65;;
54947;SDS011;41113;41.882;12.530;2023-12-14T06:41:03;20.27;;;4.55;;
54947;SDS011;41113;41.882;12.530;2023-12-14T06:43:28;21.07;;;4.57;;
54947;SDS011;41113;41.882;12.530;2023-12-14T06:45:54;18.33;;;3.80;;
54947;SDS011;41113;41.882;12.530;2023-12-14T06:48:19;19.77;;;4.50;;
54947;SDS011;41113;41.882;12.530;2023-12-14T06:50:45;18.80;;;4.63;;
54947;SDS011;41113;41.882;12.530;2023-12-14T06:53:11;15.32;;;3.70;;
54947;SDS011;41113;41.882;12.530;2023-12-14T06:55:36;13.98;;;3.50;;
54947;SDS011;41113;41.882;12.530;2023-12-14T06:58:01;15.35;;;3.22;;
54947;SDS011;41113;41.882;12.530;2023-12-14T07:00:27;15.90;;;3.72;;
54947;SDS011;41113;41.882;12.530;2023-12-14T07:02:54;19.95;;;3.95;;
54947;SDS011;41113;41.882;12.530;2023-12-14T07:05:20;17.05;;;3.75;;
54947;SDS011;41113;41.882;12.530;2023-12-14T07:07:45;14.23;;;3.67;;
54947;SDS011;41113;41.882;12.530;2023-12-14T07:10:11;15.68;;;4.20;;
54947;SDS011;41113;41.882;12.530;2023-12-14T07:12:36;16.67;;;3.33;;
54947;SDS011;41113;41.882;12.530;2023-12-14T07:15:01;13.25;;;3.88;;
54947;SDS011;41113;41.882;12.530;2023-12-14T07:17:27;14.15;;;2.78;;
54947;SDS011;41113;41.882;12.530;2023-12-14T07:19:52;17.00;;;3.72;;
54947;SDS011;41113;41.882;12.530;2023-12-14T07:22:18;17.83;;;3.85;;
54947;SDS011;41113;41.882;12.530;2023-12-14T07:24:46;13.40;;;3.28;;
54947;SDS011;41113;41.882;12.530;2023-12-14T07:27:11;16.33;;;3.92;;
54947;SDS011;41113;41.882;12.530;2023-12-14T07:29:36;16.83;;;4.25;;
54947;SDS011;41113;41.882;12.530;2023-12-14T07:32:02;20.45;;;4.32;;
54947;SDS011;41113;41.882;12.530;2023-12-14T07:34:27;17.25;;;3.90;;
54947;SDS011;41113;41.882;12.530;2023-12-14T07:36:53;20.10;;;4.93;;
54947;SDS011;41113;41.882;12.530;2023-12-14T07:39:19;12.15;;;3.53;;
54947;SDS011;41113;41.882;12.530;2023-12-14T07:41:45;24.20;;;4.78;;
54947;SDS011;41113;41.882;12.530;2023-12-14T07:44:11;23.55;;;5.75;;
54947;SDS011;41113;41.882;12.530;2023-12-14T07:46:36;17.48;;;4.80;;
54947;SDS011;41113;41.882;12.530;2023-12-14T07:51:31;16.13;;;4.15;;
54947;SDS011;41113;41.882;12.530;2023-12-14T07:53:56;17.92;;;4.18;;
54947;SDS011;41113;41.882;12.530;2023-12-14T07:56:22;19.35;;;4.22;;
54947;SDS011;41113;41.882;12.530;2023-12-14T07:58:50;17.52;;;3.95;;
54947;SDS011;41113;41.882;12.530;2023-12-14T08:01:16;11.93;;;3.30;;
54947;SDS011;41113;41.882;12.530;2023-12-14T08:03:42;15.55;;;3.10;;
54947;SDS011;41113;41.882;12.530;2023-12-14T08:06:07;13.18;;;3.40;;
54947;SDS011;41113;41.882;12.530;2023-12-14T08:08:33;19.92;;;4.07;;
54947;SDS011;41113;41.882;12.530;2023-12-14T08:10:59;19.27;;;4.30;;
54947;SDS011;41113;41.882;12.530;2023-12-14T08:13:24;15.70;;;4.00;;
54947;SDS011;41113;41.882;12.530;2023-12-14T08:15:50;13.90;;;4.13;;
54947;SDS011;41113;41.882;12.530;2023-12-14T08:18:15;17.70;;;5.47;;
54947;SDS011;41113;41.882;12.530;2023-12-14T08:20:41;17.85;;;4.40;;
54947;SDS011;41113;41.882;12.530;2023-12-14T08:23:06;16.75;;;4.22;;
54947;SDS011;41113;41.882;12.530;2023-12-14T08:25:32;17.35;;;4.82;;
54947;SDS011;41113;41.882;12.530;2023-12-14T08:27:57;16.90;;;5.07;;
54947;SDS011;41113;41.882;12.530;2023-12-14T08:30:22;13.05;;;3.50;;
54947;SDS011;41113;41.882;12.530;2023-12-14T08:32:50;12.55;;;3.47;;
54947;SDS011;41113;41.882;12.530;2023-12-14T08:35:16;13.50;;;3.40;;
54947;SDS011;41113;41.882;12.530;2023-12-14T08:37:42;12.07;;;3.00;;
54947;SDS011;41113;41.882;12.530;2023-12-14T08:40:08;10.07;;;2.78;;
54947;SDS011;41113;41.882;12.530;2023-12-14T08:42:34;16.13;;;2.70;;
54947;SDS011;41113;41.882;12.530;2023-12-14T08:45:00;9.90;;;2.88;;
54947;SDS011;41113;41.882;12.530;2023-12-14T08:47:26;17.38;;;3.60;;
54947;SDS011;41113;41.882;12.530;2023-12-14T08:49:51;13.55;;;3.03;;
54947;SDS011;41113;41.882;12.530;2023-12-14T08:52:18;14.05;;;3.00;;
54947;SDS011;41113;41.882;12.530;2023-12-14T08:54:43;19.52;;;4.65;;
54947;SDS011;41113;41.882;12.530;2023-12-14T08:57:09;20.88;;;4.05;;
54947;SDS011;41113;41.882;12.530;2023-12-14T08:59:35;18.17;;;3.58;;
54947;SDS011;41113;41.882;12.530;2023-12-14T09:02:01;12.52;;;3.50;;
54947;SDS011;41113;41.882;12.530;2023-12-14T09:04:26;16.23;;;3.92;;
54947;SDS011;41113;41.882;12.530;2023-12-14T09:06:52;12.88;;;3.38;;
54947;SDS011;41113;41.882;12.530;2023-12-14T09:09:18;16.33;;;4.05;;
54947;SDS011;41113;41.882;12.530;2023-12-14T09:11:44;15.35;;;3.75;;
54947;SDS011;41113;41.882;12.530;2023-12-14T09:14:09;15.15;;;3.78;;
54947;SDS011;41113;41.882;12.530;2023-12-14T09:16:35;12.98;;;3.40;;
54947;SDS011;41113;41.882;12.530;2023-12-14T09:19:00;14.40;;;3.20;;
54947;SDS011;41113;41.882;12.530;2023-12-14T09:21:25;17.25;;;4.00;;
54947;SDS011;41113;41.882;12.530;2023-12-14T09:23:51;12.18;;;3.35;;
54947;SDS011;41113;41.882;12.530;2023-12-14T09:26:18;16.23;;;3.58;;
54947;SDS011;41113;41.882;12.530;2023-12-14T09:28:44;19.95;;;5.88;;
54947;SDS011;41113;41.882;12.530;2023-12-14T09:31:09;19.98;;;5.97;;
54947;SDS011;41113;41.882;12.530;2023-12-14T09:33:35;25.40;;;6.22;;
54947;SDS011;41113;41.882;12.530;2023-12-14T09:36:01;17.90;;;5.72;;
54947;SDS011;41113;41.882;12.530;2023-12-14T09:38:26;21.73;;;6.18;;
54947;SDS011;41113;41.882;12.530;2023-12-14T09:40:51;19.83;;;4.75;;
54947;SDS011;41113;41.882;12.530;2023-12-14T09:43:17;18.02;;;4.82;;
54947;SDS011;41113;41.882;12.530;2023-12-14T09:45:42;16.27;;;4.78;;
54947;SDS011;41113;41.882;12.530;2023-12-14T09:48:10;16.83;;;4.15;;
54947;SDS011;41113;41.882;12.530;2023-12-14T09:50:37;16.15;;;3.92;;
54947;SDS011;41113;41.882;12.530;2023-12-14T09:53:05;21.25;;;5.22;;
54947;SDS011;41113;41.882;12.530;2023-12-14T09:55:30;18.58;;;4.90;;
54947;SDS011;41113;41.882;12.530;2023-12-14T09:57:56;17.25;;;4.68;;
54947;SDS011;41113;41.882;12.530;2023-12-14T10:05:45;17.98;;;5.47;;
54947;SDS011;41113;41.882;12.530;2023-12-14T10:08:11;19.90;;;4.50;;
54947;SDS011;41113;41.882;12.530;2023-12-14T10:10:38;23.13;;;4.72;;
54947;SDS011;41113;41.882;12.530;2023-12-14T10:13:03;21.40;;;4.60;;
54947;SDS011;41113;41.882;12.530;2023-12-14T10:15:29;14.13;;;4.03;;
54947;SDS011;41113;41.882;12.530;2023-12-14T10:17:55;14.57;;;3.45;;
54947;SDS011;41113;41.882;12.530;2023-12-14T10:20:21;20.13;;;4.13;;
54947;SDS011;41113;41.882;12.530;2023-12-14T10:22:48;16.02;;;5.18;;
54947;SDS011;41113;41.882;12.530;2023-12-14T10:25:20;15.88;;;3.80;;
54947;SDS011;41113;41.882;12.530;2023-12-14T10:27:50;15.88;;;4.47;;
54947;SDS011;41113;41.882;12.530;2023-12-14T10:30:19;15.57;;;4.20;;
54947;SDS011;41113;41.882;12.530;2023-12-14T10:32:48;11.45;;;3.80;;
54947;SDS011;41113;41.882;12.530;2023-12-14T10:35:14;16.77;;;3.45;;
54947;SDS011;41113;41.882;12.530;2023-12-14T10:37:41;15.65;;;4.00;;
54947;SDS011;41113;41.882;12.530;2023-12-14T10:40:09;17.38;;;3.95;;
54947;SDS011;41113;41.882;12.530;2023-12-14T10:42:37;16.80;;;4.45;;
54947;SDS011;41113;41.882;12.530;2023-12-14T10:45:07;16.73;;;4.00;;
54947;SDS011;41113;41.882;12.530;2023-12-14T10:47:35;21.42;;;4.63;;
54947;SDS011;41113;41.882;12.530;2023-12-14T10:50:02;17.85;;;3.95;;
54947;SDS011;41113;41.882;12.530;2023-12-14T10:52:30;15.82;;;3.53;;
54947;SDS011;41113;41.882;12.530;2023-12-14T10:55:01;12.55;;;3.40;;
54947;SDS011;41113;41.882;12.530;2023-12-14T10:57:29;16.50;;;3.17;;
54947;SDS011;41113;41.882;12.530;2023-12-14T10:59:57;11.18;;;2.67;;
54947;SDS011;41113;41.882;12.530;2023-12-14T11:02:24;16.13;;;3.43;;
54947;SDS011;41113;41.882;12.530;2023-12-14T11:05:02;12.90;;;2.90;;
54947;SDS011;41113;41.882;12.530;2023-12-14T11:10:15;11.50;;;2.83;;
54947;SDS011;41113;41.882;12.530;2023-12-14T11:12:54;16.52;;;4.30;;
54947;SDS011;41113;41.882;12.530;2023-12-14T11:15:19;14.23;;;3.55;;
54947;SDS011;41113;41.882;12.530;2023-12-14T11:23:09;23.30;;;5.65;;
54947;SDS011;41113;41.882;12.530;2023-12-14T11:25:35;17.65;;;4.28;;
54947;SDS011;41113;41.882;12.530;2023-12-14T11:28:04;21.27;;;4.32;;
54947;SDS011;41113;41.882;12.530;2023-12-14T11:30:31;21.33;;;4.40;;
54947;SDS011;41113;41.882;12.530;2023-12-14T11:32:57;18.25;;;4.00;;
54947;SDS011;41113;41.882;12.530;2023-12-14T11:35:22;17.70;;;4.28;;
54947;SDS011;41113;41.882;12.530;2023-12-14T11:37:49;17.15;;;3.47;;
54947;SDS011;41113;41.882;12.530;2023-12-14T11:40:16;18.55;;;4.10;;
54947;SDS011;41113;41.882;12.530;2023-12-14T11:42:57;20.35;;;5.70;;
54947;SDS011;41113;41.882;12.530;2023-12-14T11:45:26;17.63;;;5.40;;
54947;SDS011;41113;41.882;12.530;2023-12-14T11:47:52;27.58;;;6.80;;
54947;SDS011;41113;41.882;12.530;2023-12-14T11:50:17;21.58;;;4.43;;
54947;SDS011;41113;41.882;12.530;2023-12-14T11:52:43;15.90;;;5.10;;
54947;SDS011;41113;41.882;12.530;2023-12-14T11:55:10;18.55;;;4.70;;
54947;SDS011;41113;41.882;12.530;2023-12-14T11:57:36;14.15;;;3.38;;
54947;SDS011;41113;41.882;12.530;2023-12-14T12:00:01;13.10;;;3.42;;
54947;SDS011;41113;41.882;12.530;2023-12-14T12:02:28;11.50;;;2.83;;
54947;SDS011;41113;41.882;12.530;2023-12-14T12:04:53;17.38;;;4.05;;
54947;SDS011;41113;41.882;12.530;2023-12-14T12:07:19;14.35;;;3.35;;
54947;SDS011;41113;41.882;12.530;2023-12-14T12:09:44;15.60;;;3.15;;
54947;SDS011;41113;41.882;12.530;2023-12-14T12:12:10;18.17;;;2.97;;
54947;SDS011;41113;41.882;12.530;2023-12-14T12:14:37;16.88;;;3.30;;
54947;SDS011;41113;41.882;12.530;2023-12-14T12:17:04;17.48;;;5.85;;
54947;SDS011;41113;41.882;12.530;2023-12-14T12:19:34;14.27;;;3.70;;
54947;SDS011;41113;41.882;12.530;2023-12-14T12:22:00;10.57;;;3.25;;
54947;SDS011;41113;41.882;12.530;2023-12-14T12:24:26;12.93;;;3.33;;
54947;SDS011;41113;41.882;12.530;2023-12-14T12:26:51;18.13;;;4.20;;
54947;SDS011;41113;41.882;12.530;2023-12-14T12:29:16;11.18;;;3.00;;
54947;SDS011;41113;41.882;12.530;2023-12-14T12:31:42;15.70;;;3.25;;
54947;SDS011;41113;41.882;12.530;2023-12-14T12:34:08;13.85;;;2.97;;
54947;SDS011;41113;41.882;12.530;2023-12-14T12:36:34;13.55;;;3.08;;
54947;SDS011;41113;41.882;12.530;2023-12-14T12:39:00;15.05;;;3.63;;
54947;SDS011;41113;41.882;12.530;2023-12-14T12:41:25;13.40;;;2.80;;
54947;SDS011;41113;41.882;12.530;2023-12-14T12:43:50;17.30;;;3.22;;
54947;SDS011;41113;41.882;12.530;2023-12-14T12:46:16;10.90;;;3.20;;
54947;SDS011;41113;41.882;12.530;2023-12-14T12:48:41;13.00;;;3.03;;
54947;SDS011;41113;41.882;12.530;2023-12-14T12:51:07;10.30;;;2.40;;
54947;SDS011;41113;41.882;12.530;2023-12-14T12:53:32;16.27;;;3.20;;
54947;SDS011;41113;41.882;12.530;2023-12-14T12:55:58;9.70;;;2.42;;
54947;SDS011;41113;41.882;12.530;2023-12-14T12:58:23;19.67;;;3.35;;
54947;SDS011;41113;41.882;12.530;2023-12-14T13:00:49;15.82;;;3.45;;
54947;SDS011;41113;41.882;12.530;2023-12-14T13:03:14;12.88;;;3.40;;
54947;SDS011;41113;41.882;12.530;2023-12-14T13:05:40;11.52;;;3.28;;
54947;SDS011;41113;41.882;12.530;2023-12-14T13:08:05;12.43;;;2.70;;
54947;SDS011;41113;41.882;12.530;2023-12-14T13:10:31;12.32;;;2.80;;
54947;SDS011;41113;41.882;12.530;2023-12-14T13:12:57;13.00;;;2.55;;
54947;SDS011;41113;41.882;12.530;2023-12-14T13:15:22;13.10;;;2.90;;
54947;SDS011;41113;41.882;12.530;2023-12-14T13:17:52;10.20;;;2.42;;
54947;SDS011;41113;41.882;12.530;2023-12-14T13:20:19;12.40;;;2.70;;
54947;SDS011;41113;41.882;12.530;2023-12-14T13:22:44;11.70;;;2.40;;
54947;SDS011;41113;41.882;12.530;2023-12-14T13:25:09;8.70;;;2.10;;
54947;SDS011;41113;41.882;12.530;2023-12-14T13:27:35;6.13;;;2.03;;
54947;SDS011;41113;41.882;12.530;2023-12-14T13:30:02;9.15;;;2.13;;
54947;SDS011;41113;41.882;12.530;2023-12-14T13:32:29;6.80;;;1.83;;
54947;SDS011;41113;41.882;12.530;2023-12-14T13:34:54;7.72;;;1.80;;
54947;SDS011;41113;41.882;12.530;2023-12-14T13:37:20;9.43;;;1.58;;
54947;SDS011;41113;41.882;12.530;2023-12-14T13:39:45;7.05;;;1.50;;
54947;SDS011;41113;41.882;12.530;2023-12-14T13:42:12;5.70;;;1.52;;
54947;SDS011;41113;41.882;12.530;2023-12-14T13:44:40;6.05;;;1.73;;
54947;SDS011;41113;41.882;12.530;2023-12-14T13:47:05;7.15;;;1.67;;
54947;SDS011;41113;41.882;12.530;2023-12-14T13:49:30;7.43;;;1.70;;
54947;SDS011;41113;41.882;12.530;2023-12-14T13:51:56;6.80;;;1.65;;
54947;SDS011;41113;41.882;12.530;2023-12-14T13:54:22;7.18;;;1.48;;
54947;SDS011;41113;41.882;12.530;2023-12-14T13:56:48;7.65;;;1.48;;
54947;SDS011;41113;41.882;12.530;2023-12-14T13:59:13;5.32;;;1.38;;
54947;SDS011;41113;41.882;12.530;2023-12-14T14:01:39;9.27;;;2.55;;
54947;SDS011;41113;41.882;12.530;2023-12-14T14:04:04;9.85;;;2.40;;
54947;SDS011;41113;41.882;12.530;2023-12-14T14:06:30;6.15;;;1.73;;
54947;SDS011;41113;41.882;12.530;2023-12-14T14:08:55;6.63;;;1.63;;
54947;SDS011;41113;41.882;12.530;2023-12-14T14:11:21;6.88;;;1.83;;
54947;SDS011;41113;41.882;12.530;2023-12-14T14:13:47;8.38;;;2.00;;
54947;SDS011;41113;41.882;12.530;2023-12-14T14:16:13;7.88;;;1.75;;
54947;SDS011;41113;41.882;12.530;2023-12-14T14:18:38;6.90;;;1.80;;
54947;SDS011;41113;41.882;12.530;2023-12-14T14:21:04;6.65;;;1.73;;
54947;SDS011;41113;41.882;12.530;2023-12-14T14:23:32;8.33;;;2.27;;
54947;SDS011;41113;41.882;12.530;2023-12-14T14:25:58;8.90;;;1.83;;
54947;SDS011;41113;41.882;12.530;2023-12-14T14:28:23;7.63;;;2.13;;
54947;SDS011;41113;41.882;12.530;2023-12-14T14:30:48;7.30;;;1.83;;
54947;SDS011;41113;41.882;12.530;2023-12-14T14:33:14;8.55;;;1.70;;